sensor_id;sensor_type;location;lat;lon;timestamp;P1;durP1;ratioP1;P2;durP2;ratioP2
31087;SDS011;17745;55.914;37.554;2023-05-31T03:29:10;6.55;;;3.35;;
31087;SDS011;17745;55.914;37.554;2023-05-31T03:31:55;6.78;;;2.92;;
31087;SDS011;17745;55.914;37.554;2023-05-31T03:34:58;5.37;;;2.78;;
31087;SDS011;17745;55.914;37.554;2023-05-31T03:37:37;7.28;;;2.83;;
31087;SDS011;17745;55.914;37.554;2023-05-31T03:40:09;5.87;;;2.97;;
31087;SDS011;17745;55.914;37.554;2023-05-31T03:42:38;5.90;;;2.90;;
31087;SDS011;17745;55.914;37.554;2023-05-31T03:45:09;4.00;;;2.60;;
31087;SDS011;17745;55.914;37.554;2023-05-31T03:47:49;5.47;;;2.65;;
31087;SDS011;17745;55.914;37.554;2023-05-31T03:52:24;6.10;;;3.10;;
31087;SDS011;17745;55.914;37.554;2023-05-31T03:53:53;7.40;;;2.90;;
31087;SDS011;17745;55.914;37.554;2023-05-31T03:56:22;5.50;;;3.25;;
31087;SDS011;17745;55.914;37.554;2023-05-31T03:58:51;4.87;;;2.28;;
31087;SDS011;17745;55.914;37.554;2023-05-31T04:01:30;5.55;;;2.85;;
31087;SDS011;17745;55.914;37.554;2023-05-31T04:04:06;4.87;;;2.92;;
31087;SDS011;17745;55.914;37.554;2023-05-31T04:06:40;6.65;;;2.67;;
31087;SDS011;17745;55.914;37.554;2023-05-31T04:09:28;7.37;;;2.50;;
31087;SDS011;17745;55.914;37.554;2023-05-31T04:15:06;4.70;;;2.50;;
31087;SDS011;17745;55.914;37.554;2023-05-31T04:17:40;6.00;;;3.25;;
31087;SDS011;17745;55.914;37.554;2023-05-31T04:20:10;4.60;;;2.12;;
31087;SDS011;17745;55.914;37.554;2023-05-31T04:22:44;9.10;;;3.00;;
31087;SDS011;17745;55.914;37.554;2023-05-31T04:25:18;5.30;;;3.28;;
31087;SDS011;17745;55.914;37.554;2023-05-31T04:27:49;6.28;;;3.17;;
31087;SDS011;17745;55.914;37.554;2023-05-31T04:30:40;5.00;;;2.85;;
31087;SDS011;17745;55.914;37.554;2023-05-31T04:33:13;3.30;;;2.00;;
31087;SDS011;17745;55.914;37.554;2023-05-31T04:35:45;3.87;;;2.17;;
31087;SDS011;17745;55.914;37.554;2023-05-31T04:38:18;4.82;;;2.65;;
31087;SDS011;17745;55.914;37.554;2023-05-31T04:40:57;4.97;;;2.83;;
31087;SDS011;17745;55.914;37.554;2023-05-31T04:43:36;11.02;;;2.62;;
31087;SDS011;17745;55.914;37.554;2023-05-31T04:46:06;3.62;;;2.28;;
31087;SDS011;17745;55.914;37.554;2023-05-31T04:48:38;3.10;;;1.70;;
31087;SDS011;17745;55.914;37.554;2023-05-31T04:51:09;4.40;;;2.40;;
31087;SDS011;17745;55.914;37.554;2023-05-31T04:53:39;4.60;;;2.40;;
31087;SDS011;17745;55.914;37.554;2023-05-31T04:56:07;3.50;;;1.87;;
31087;SDS011;17745;55.914;37.554;2023-05-31T04:58:42;5.15;;;2.35;;
31087;SDS011;17745;55.914;37.554;2023-05-31T05:01:28;5.90;;;2.40;;
31087;SDS011;17745;55.914;37.554;2023-05-31T05:04:00;7.65;;;2.62;;
31087;SDS011;17745;55.914;37.554;2023-05-31T05:06:29;3.40;;;2.22;;
31087;SDS011;17745;55.914;37.554;2023-05-31T05:09:04;3.67;;;2.12;;
31087;SDS011;17745;55.914;37.554;2023-05-31T05:11:33;4.40;;;2.67;;
31087;SDS011;17745;55.914;37.554;2023-05-31T05:14:02;4.68;;;2.15;;
31087;SDS011;17745;55.914;37.554;2023-05-31T05:16:32;4.25;;;2.42;;
31087;SDS011;17745;55.914;37.554;2023-05-31T05:19:05;6.07;;;2.72;;
31087;SDS011;17745;55.914;37.554;2023-05-31T05:21:35;5.63;;;3.07;;
31087;SDS011;17745;55.914;37.554;2023-05-31T05:24:03;7.35;;;2.80;;
31087;SDS011;17745;55.914;37.554;2023-05-31T05:26:32;4.20;;;2.00;;
31087;SDS011;17745;55.914;37.554;2023-05-31T05:29:04;5.85;;;2.12;;
31087;SDS011;17745;55.914;37.554;2023-05-31T05:31:46;4.40;;;2.50;;
31087;SDS011;17745;55.914;37.554;2023-05-31T05:34:21;5.25;;;2.72;;
31087;SDS011;17745;55.914;37.554;2023-05-31T05:36:50;3.83;;;2.42;;
31087;SDS011;17745;55.914;37.554;2023-05-31T05:39:20;5.15;;;2.33;;
31087;SDS011;17745;55.914;37.554;2023-05-31T05:41:48;4.68;;;2.37;;
31087;SDS011;17745;55.914;37.554;2023-05-31T05:44:21;7.62;;;2.53;;
31087;SDS011;17745;55.914;37.554;2023-05-31T05:46:49;4.97;;;2.30;;
31087;SDS011;17745;55.914;37.554;2023-05-31T05:49:17;4.72;;;2.28;;
31087;SDS011;17745;55.914;37.554;2023-05-31T05:51:52;4.18;;;2.12;;
31087;SDS011;17745;55.914;37.554;2023-05-31T05:54:30;6.50;;;2.50;;
31087;SDS011;17745;55.914;37.554;2023-05-31T05:57:02;3.22;;;1.87;;
31087;SDS011;17745;55.914;37.554;2023-05-31T05:59:40;4.80;;;2.42;;
31087;SDS011;17745;55.914;37.554;2023-05-31T06:02:17;8.20;;;2.55;;
31087;SDS011;17745;55.914;37.554;2023-05-31T06:04:54;4.20;;;2.35;;
31087;SDS011;17745;55.914;37.554;2023-05-31T06:07:25;11.97;;;3.40;;
31087;SDS011;17745;55.914;37.554;2023-05-31T06:09:55;4.62;;;2.55;;
31087;SDS011;17745;55.914;37.554;2023-05-31T06:12:25;6.82;;;2.70;;
31087;SDS011;17745;55.914;37.554;2023-05-31T06:14:55;6.22;;;2.83;;
31087;SDS011;17745;55.914;37.554;2023-05-31T06:17:31;5.37;;;2.40;;
31087;SDS011;17745;55.914;37.554;2023-05-31T06:20:02;3.90;;;2.25;;
31087;SDS011;17745;55.914;37.554;2023-05-31T06:25:09;4.78;;;2.50;;
31087;SDS011;17745;55.914;37.554;2023-05-31T06:27:56;5.43;;;2.45;;
31087;SDS011;17745;55.914;37.554;2023-05-31T06:30:31;7.75;;;3.33;;
31087;SDS011;17745;55.914;37.554;2023-05-31T06:33:35;8.55;;;6.18;;
31087;SDS011;17745;55.914;37.554;2023-05-31T06:36:21;6.45;;;4.20;;
31087;SDS011;17745;55.914;37.554;2023-05-31T06:38:52;5.43;;;3.28;;
31087;SDS011;17745;55.914;37.554;2023-05-31T06:41:37;4.15;;;2.65;;
31087;SDS011;17745;55.914;37.554;2023-05-31T06:47:21;5.72;;;2.33;;
31087;SDS011;17745;55.914;37.554;2023-05-31T06:49:54;3.30;;;1.92;;
31087;SDS011;17745;55.914;37.554;2023-05-31T06:52:31;3.12;;;1.90;;
31087;SDS011;17745;55.914;37.554;2023-05-31T06:55:09;4.72;;;2.83;;
31087;SDS011;17745;55.914;37.554;2023-05-31T07:00:44;4.70;;;2.67;;
31087;SDS011;17745;55.914;37.554;2023-05-31T07:03:16;5.55;;;2.50;;
31087;SDS011;17745;55.914;37.554;2023-05-31T07:11:06;5.80;;;2.45;;
31087;SDS011;17745;55.914;37.554;2023-05-31T07:18:32;4.15;;;2.10;;
31087;SDS011;17745;55.914;37.554;2023-05-31T07:28:45;4.55;;;2.40;;
31087;SDS011;17745;55.914;37.554;2023-05-31T07:31:43;6.15;;;1.90;;
31087;SDS011;17745;55.914;37.554;2023-05-31T07:40:13;2.60;;;1.58;;
31087;SDS011;17745;55.914;37.554;2023-05-31T07:42:42;2.62;;;1.87;;
31087;SDS011;17745;55.914;37.554;2023-05-31T07:45:32;4.82;;;2.50;;
31087;SDS011;17745;55.914;37.554;2023-05-31T07:51:03;5.05;;;2.50;;
31087;SDS011;17745;55.914;37.554;2023-05-31T07:53:58;5.75;;;2.45;;
31087;SDS011;17745;55.914;37.554;2023-05-31T07:56:59;9.43;;;2.65;;
31087;SDS011;17745;55.914;37.554;2023-05-31T07:59:40;3.40;;;2.00;;
31087;SDS011;17745;55.914;37.554;2023-05-31T08:02:15;5.45;;;2.45;;
31087;SDS011;17745;55.914;37.554;2023-05-31T08:05:03;3.70;;;2.25;;
31087;SDS011;17745;55.914;37.554;2023-05-31T08:07:57;3.00;;;1.92;;
31087;SDS011;17745;55.914;37.554;2023-05-31T08:10:46;4.03;;;2.20;;
31087;SDS011;17745;55.914;37.554;2023-05-31T08:13:24;3.05;;;1.95;;
31087;SDS011;17745;55.914;37.554;2023-05-31T08:15:54;4.57;;;2.00;;
31087;SDS011;17745;55.914;37.554;2023-05-31T08:18:33;3.50;;;2.22;;
31087;SDS011;17745;55.914;37.554;2023-05-31T08:21:07;4.97;;;2.97;;
31087;SDS011;17745;55.914;37.554;2023-05-31T08:23:38;4.40;;;2.55;;
31087;SDS011;17745;55.914;37.554;2023-05-31T08:26:14;5.70;;;2.87;;
31087;SDS011;17745;55.914;37.554;2023-05-31T08:28:46;4.70;;;2.25;;
31087;SDS011;17745;55.914;37.554;2023-05-31T08:31:45;4.85;;;2.75;;
31087;SDS011;17745;55.914;37.554;2023-05-31T08:38:00;6.57;;;2.80;;
31087;SDS011;17745;55.914;37.554;2023-05-31T08:40:32;5.62;;;2.83;;
31087;SDS011;17745;55.914;37.554;2023-05-31T08:43:02;5.03;;;2.50;;
31087;SDS011;17745;55.914;37.554;2023-05-31T08:49:11;6.80;;;2.65;;
31087;SDS011;17745;55.914;37.554;2023-05-31T08:51:59;6.05;;;2.90;;
31087;SDS011;17745;55.914;37.554;2023-05-31T08:54:48;4.47;;;2.53;;
31087;SDS011;17745;55.914;37.554;2023-05-31T09:00:34;8.18;;;2.90;;
31087;SDS011;17745;55.914;37.554;2023-05-31T09:03:05;5.32;;;2.87;;
31087;SDS011;17745;55.914;37.554;2023-05-31T09:05:35;5.87;;;3.03;;
31087;SDS011;17745;55.914;37.554;2023-05-31T09:11:44;4.43;;;2.60;;
31087;SDS011;17745;55.914;37.554;2023-05-31T09:15:00;7.20;;;3.22;;
31087;SDS011;17745;55.914;37.554;2023-05-31T09:17:31;5.20;;;2.58;;
31087;SDS011;17745;55.914;37.554;2023-05-31T09:20:05;4.47;;;2.03;;
31087;SDS011;17745;55.914;37.554;2023-05-31T09:22:33;8.10;;;2.75;;
31087;SDS011;17745;55.914;37.554;2023-05-31T09:28:16;7.12;;;2.90;;
31087;SDS011;17745;55.914;37.554;2023-05-31T09:31:06;5.70;;;2.10;;
31087;SDS011;17745;55.914;37.554;2023-05-31T09:33:39;5.82;;;2.92;;
31087;SDS011;17745;55.914;37.554;2023-05-31T09:36:14;4.22;;;2.22;;
31087;SDS011;17745;55.914;37.554;2023-05-31T09:41:44;5.55;;;3.05;;
31087;SDS011;17745;55.914;37.554;2023-05-31T09:47:38;4.47;;;2.22;;
31087;SDS011;17745;55.914;37.554;2023-05-31T09:50:25;11.80;;;2.72;;
31087;SDS011;17745;55.914;37.554;2023-05-31T09:56:16;3.03;;;2.15;;
31087;SDS011;17745;55.914;37.554;2023-05-31T09:58:46;6.68;;;3.03;;
31087;SDS011;17745;55.914;37.554;2023-05-31T10:01:17;4.35;;;2.28;;
31087;SDS011;17745;55.914;37.554;2023-05-31T10:04:04;3.62;;;2.20;;
31087;SDS011;17745;55.914;37.554;2023-05-31T10:06:35;2.70;;;2.03;;
31087;SDS011;17745;55.914;37.554;2023-05-31T10:09:07;3.90;;;2.28;;
31087;SDS011;17745;55.914;37.554;2023-05-31T10:11:44;6.78;;;2.72;;
31087;SDS011;17745;55.914;37.554;2023-05-31T10:17:45;3.15;;;2.20;;
31087;SDS011;17745;55.914;37.554;2023-05-31T10:20:18;5.37;;;2.85;;
31087;SDS011;17745;55.914;37.554;2023-05-31T10:22:52;3.87;;;2.30;;
31087;SDS011;17745;55.914;37.554;2023-05-31T10:25:33;5.05;;;2.83;;
31087;SDS011;17745;55.914;37.554;2023-05-31T10:28:09;5.03;;;2.65;;
31087;SDS011;17745;55.914;37.554;2023-05-31T10:30:41;4.97;;;2.77;;
31087;SDS011;17745;55.914;37.554;2023-05-31T10:33:14;6.68;;;3.20;;
31087;SDS011;17745;55.914;37.554;2023-05-31T10:35:45;5.22;;;3.35;;
31087;SDS011;17745;55.914;37.554;2023-05-31T10:38:17;6.05;;;2.90;;
31087;SDS011;17745;55.914;37.554;2023-05-31T10:40:55;6.45;;;2.55;;
31087;SDS011;17745;55.914;37.554;2023-05-31T10:46:35;7.43;;;2.97;;
31087;SDS011;17745;55.914;37.554;2023-05-31T10:49:13;9.23;;;3.17;;
31087;SDS011;17745;55.914;37.554;2023-05-31T10:51:49;7.60;;;3.58;;
31087;SDS011;17745;55.914;37.554;2023-05-31T10:54:37;5.85;;;3.53;;
31087;SDS011;17745;55.914;37.554;2023-05-31T10:57:07;7.95;;;3.40;;
31087;SDS011;17745;55.914;37.554;2023-05-31T10:59:54;6.03;;;3.08;;
31087;SDS011;17745;55.914;37.554;2023-05-31T11:02:31;8.65;;;3.75;;
31087;SDS011;17745;55.914;37.554;2023-05-31T11:05:25;7.32;;;3.85;;
31087;SDS011;17745;55.914;37.554;2023-05-31T11:08:17;5.75;;;3.25;;
31087;SDS011;17745;55.914;37.554;2023-05-31T11:10:52;8.65;;;3.17;;
31087;SDS011;17745;55.914;37.554;2023-05-31T11:14:00;7.68;;;3.75;;
31087;SDS011;17745;55.914;37.554;2023-05-31T11:16:32;8.75;;;3.78;;
31087;SDS011;17745;55.914;37.554;2023-05-31T11:22:10;10.27;;;3.78;;
31087;SDS011;17745;55.914;37.554;2023-05-31T11:31:59;7.72;;;3.45;;
31087;SDS011;17745;55.914;37.554;2023-05-31T11:37:29;8.10;;;3.28;;
31087;SDS011;17745;55.914;37.554;2023-05-31T11:40:04;5.00;;;2.75;;
31087;SDS011;17745;55.914;37.554;2023-05-31T11:42:41;6.72;;;2.87;;
31087;SDS011;17745;55.914;37.554;2023-05-31T11:45:13;9.57;;;3.97;;
31087;SDS011;17745;55.914;37.554;2023-05-31T11:47:47;5.70;;;3.60;;
31087;SDS011;17745;55.914;37.554;2023-05-31T11:50:27;6.40;;;3.80;;
31087;SDS011;17745;55.914;37.554;2023-05-31T11:53:05;5.40;;;2.50;;
31087;SDS011;17745;55.914;37.554;2023-05-31T11:55:37;3.83;;;2.17;;
31087;SDS011;17745;55.914;37.554;2023-05-31T11:58:08;6.25;;;2.62;;
31087;SDS011;17745;55.914;37.554;2023-05-31T12:01:44;5.80;;;2.70;;
31087;SDS011;17745;55.914;37.554;2023-05-31T12:04:37;11.50;;;3.40;;
31087;SDS011;17745;55.914;37.554;2023-05-31T12:07:15;4.43;;;2.50;;
31087;SDS011;17745;55.914;37.554;2023-05-31T12:09:49;10.13;;;3.55;;
31087;SDS011;17745;55.914;37.554;2023-05-31T12:12:53;6.75;;;3.33;;
31087;SDS011;17745;55.914;37.554;2023-05-31T12:15:39;6.47;;;3.03;;
31087;SDS011;17745;55.914;37.554;2023-05-31T12:18:08;6.32;;;2.97;;
31087;SDS011;17745;55.914;37.554;2023-05-31T12:23:52;5.87;;;3.10;;
31087;SDS011;17745;55.914;37.554;2023-05-31T12:33:36;7.10;;;2.80;;
31087;SDS011;17745;55.914;37.554;2023-05-31T12:36:22;7.70;;;2.83;;
31087;SDS011;17745;55.914;37.554;2023-05-31T12:38:55;4.25;;;2.20;;
31087;SDS011;17745;55.914;37.554;2023-05-31T12:41:26;7.25;;;2.90;;
31087;SDS011;17745;55.914;37.554;2023-05-31T12:46:29;4.00;;;2.40;;
31087;SDS011;17745;55.914;37.554;2023-05-31T12:49:19;5.35;;;2.92;;
31087;SDS011;17745;55.914;37.554;2023-05-31T12:51:54;3.58;;;2.12;;
31087;SDS011;17745;55.914;37.554;2023-05-31T12:55:10;9.60;;;3.05;;
31087;SDS011;17745;55.914;37.554;2023-05-31T12:57:40;8.68;;;2.83;;
31087;SDS011;17745;55.914;37.554;2023-05-31T13:00:12;7.07;;;2.70;;
31087;SDS011;17745;55.914;37.554;2023-05-31T13:02:47;9.88;;;2.80;;
31087;SDS011;17745;55.914;37.554;2023-05-31T13:05:19;3.90;;;2.12;;
31087;SDS011;17745;55.914;37.554;2023-05-31T13:08:07;9.35;;;2.70;;
31087;SDS011;17745;55.914;37.554;2023-05-31T13:10:54;6.40;;;2.47;;
31087;SDS011;17745;55.914;37.554;2023-05-31T13:13:24;8.90;;;2.70;;
31087;SDS011;17745;55.914;37.554;2023-05-31T13:16:02;7.15;;;2.40;;
31087;SDS011;17745;55.914;37.554;2023-05-31T13:19:04;8.30;;;3.00;;
31087;SDS011;17745;55.914;37.554;2023-05-31T13:21:46;6.35;;;2.92;;
31087;SDS011;17745;55.914;37.554;2023-05-31T13:28:13;7.80;;;4.45;;
31087;SDS011;17745;55.914;37.554;2023-05-31T13:31:18;12.05;;;4.87;;
31087;SDS011;17745;55.914;37.554;2023-05-31T13:55:41;8.60;;;3.97;;
31087;SDS011;17745;55.914;37.554;2023-05-31T14:02:54;7.47;;;3.15;;
31087;SDS011;17745;55.914;37.554;2023-05-31T14:06:00;8.93;;;3.20;;
31087;SDS011;17745;55.914;37.554;2023-05-31T14:08:48;8.85;;;3.75;;
31087;SDS011;17745;55.914;37.554;2023-05-31T14:15:14;6.95;;;3.15;;
31087;SDS011;17745;55.914;37.554;2023-05-31T14:18:11;8.30;;;3.62;;
31087;SDS011;17745;55.914;37.554;2023-05-31T14:20:50;8.10;;;3.67;;
31087;SDS011;17745;55.914;37.554;2023-05-31T14:26:45;8.38;;;3.35;;
31087;SDS011;17745;55.914;37.554;2023-05-31T14:39:23;8.52;;;3.45;;
31087;SDS011;17745;55.914;37.554;2023-05-31T15:10:38;11.48;;;2.87;;
31087;SDS011;17745;55.914;37.554;2023-05-31T15:13:07;9.30;;;3.33;;
31087;SDS011;17745;55.914;37.554;2023-05-31T15:15:49;12.77;;;3.30;;
31087;SDS011;17745;55.914;37.554;2023-05-31T15:18:21;8.75;;;3.42;;
31087;SDS011;17745;55.914;37.554;2023-05-31T15:21:11;12.00;;;3.65;;
31087;SDS011;17745;55.914;37.554;2023-05-31T15:23:50;8.60;;;3.72;;
31087;SDS011;17745;55.914;37.554;2023-05-31T15:26:39;14.68;;;3.72;;
31087;SDS011;17745;55.914;37.554;2023-05-31T15:29:23;7.47;;;3.25;;
31087;SDS011;17745;55.914;37.554;2023-05-31T15:32:03;8.20;;;3.25;;
31087;SDS011;17745;55.914;37.554;2023-05-31T15:34:36;10.15;;;3.30;;
31087;SDS011;17745;55.914;37.554;2023-05-31T15:37:09;10.10;;;3.40;;
31087;SDS011;17745;55.914;37.554;2023-05-31T15:39:38;9.43;;;3.45;;
31087;SDS011;17745;55.914;37.554;2023-05-31T15:42:08;5.93;;;3.08;;
31087;SDS011;17745;55.914;37.554;2023-05-31T15:44:37;6.05;;;2.75;;
31087;SDS011;17745;55.914;37.554;2023-05-31T15:47:07;8.98;;;3.30;;
31087;SDS011;17745;55.914;37.554;2023-05-31T15:52:47;7.32;;;3.33;;
31087;SDS011;17745;55.914;37.554;2023-05-31T15:55:19;9.52;;;3.62;;
31087;SDS011;17745;55.914;37.554;2023-05-31T15:58:01;7.72;;;3.55;;
31087;SDS011;17745;55.914;37.554;2023-05-31T16:00:31;9.55;;;3.30;;
31087;SDS011;17745;55.914;37.554;2023-05-31T16:03:07;12.98;;;3.92;;
31087;SDS011;17745;55.914;37.554;2023-05-31T16:05:37;11.52;;;3.80;;
31087;SDS011;17745;55.914;37.554;2023-05-31T16:08:16;7.60;;;3.42;;
31087;SDS011;17745;55.914;37.554;2023-05-31T16:10:44;14.02;;;3.72;;
31087;SDS011;17745;55.914;37.554;2023-05-31T16:13:33;11.73;;;3.40;;
31087;SDS011;17745;55.914;37.554;2023-05-31T16:19:57;9.55;;;3.58;;
31087;SDS011;17745;55.914;37.554;2023-05-31T16:23:10;12.70;;;4.18;;
31087;SDS011;17745;55.914;37.554;2023-05-31T16:26:38;10.25;;;4.18;;
31087;SDS011;17745;55.914;37.554;2023-05-31T16:33:30;9.70;;;3.30;;
31087;SDS011;17745;55.914;37.554;2023-05-31T16:36:45;8.80;;;3.50;;
31087;SDS011;17745;55.914;37.554;2023-05-31T16:40:19;8.25;;;3.97;;
31087;SDS011;17745;55.914;37.554;2023-05-31T16:42:52;13.77;;;4.20;;
31087;SDS011;17745;55.914;37.554;2023-05-31T17:40:56;14.20;;;4.72;;
31087;SDS011;17745;55.914;37.554;2023-05-31T17:47:33;11.05;;;4.68;;
31087;SDS011;17745;55.914;37.554;2023-05-31T17:50:47;12.90;;;4.85;;
31087;SDS011;17745;55.914;37.554;2023-05-31T17:53:20;13.23;;;4.55;;
31087;SDS011;17745;55.914;37.554;2023-05-31T17:59:17;12.73;;;4.78;;
31087;SDS011;17745;55.914;37.554;2023-05-31T18:01:52;20.65;;;4.32;;
31087;SDS011;17745;55.914;37.554;2023-05-31T18:04:47;17.30;;;5.40;;
31087;SDS011;17745;55.914;37.554;2023-05-31T18:07:19;10.35;;;4.07;;
31087;SDS011;17745;55.914;37.554;2023-05-31T18:09:55;12.05;;;4.68;;
31087;SDS011;17745;55.914;37.554;2023-05-31T18:12:45;12.37;;;4.65;;
31087;SDS011;17745;55.914;37.554;2023-05-31T18:15:23;12.88;;;5.25;;
31087;SDS011;17745;55.914;37.554;2023-05-31T18:18:15;14.95;;;5.50;;
31087;SDS011;17745;55.914;37.554;2023-05-31T18:21:39;14.90;;;5.62;;
31087;SDS011;17745;55.914;37.554;2023-05-31T18:24:50;21.42;;;7.05;;
31087;SDS011;17745;55.914;37.554;2023-05-31T18:32:14;24.37;;;8.35;;
31087;SDS011;17745;55.914;37.554;2023-05-31T18:35:18;31.55;;;10.23;;
31087;SDS011;17745;55.914;37.554;2023-05-31T18:54:41;21.15;;;9.45;;
31087;SDS011;17745;55.914;37.554;2023-05-31T18:57:24;24.63;;;8.98;;
31087;SDS011;17745;55.914;37.554;2023-05-31T19:00:14;17.92;;;7.55;;
31087;SDS011;17745;55.914;37.554;2023-05-31T19:03:02;25.23;;;8.23;;
31087;SDS011;17745;55.914;37.554;2023-05-31T19:10:40;16.10;;;7.15;;
31087;SDS011;17745;55.914;37.554;2023-05-31T19:13:39;16.62;;;7.32;;
31087;SDS011;17745;55.914;37.554;2023-05-31T19:16:41;15.45;;;7.82;;
31087;SDS011;17745;55.914;37.554;2023-05-31T19:23:18;19.08;;;8.07;;
31087;SDS011;17745;55.914;37.554;2023-05-31T19:29:52;22.33;;;8.00;;
31087;SDS011;17745;55.914;37.554;2023-05-31T19:34:14;19.55;;;8.57;;
31087;SDS011;17745;55.914;37.554;2023-05-31T19:36:28;23.83;;;8.95;;
31087;SDS011;17745;55.914;37.554;2023-05-31T19:39:50;23.52;;;8.93;;
31087;SDS011;17745;55.914;37.554;2023-05-31T19:43:00;19.98;;;9.20;;
31087;SDS011;17745;55.914;37.554;2023-05-31T19:50:26;19.25;;;7.00;;
31087;SDS011;17745;55.914;37.554;2023-05-31T19:53:47;14.85;;;7.37;;
31087;SDS011;17745;55.914;37.554;2023-05-31T19:56:26;18.12;;;8.65;;
31087;SDS011;17745;55.914;37.554;2023-05-31T19:59:11;21.00;;;7.50;;
31087;SDS011;17745;55.914;37.554;2023-05-31T20:01:44;17.87;;;7.60;;
31087;SDS011;17745;55.914;37.554;2023-05-31T20:04:42;19.20;;;8.32;;
31087;SDS011;17745;55.914;37.554;2023-05-31T20:07:14;18.42;;;6.93;;
31087;SDS011;17745;55.914;37.554;2023-05-31T20:09:43;24.33;;;8.93;;
31087;SDS011;17745;55.914;37.554;2023-05-31T20:12:13;17.48;;;8.55;;
31087;SDS011;17745;55.914;37.554;2023-05-31T20:15:04;19.25;;;6.85;;
31087;SDS011;17745;55.914;37.554;2023-05-31T20:17:34;23.58;;;8.27;;
31087;SDS011;17745;55.914;37.554;2023-05-31T20:20:06;19.75;;;7.47;;
31087;SDS011;17745;55.914;37.554;2023-05-31T20:22:38;25.52;;;8.57;;
31087;SDS011;17745;55.914;37.554;2023-05-31T20:25:07;19.20;;;9.07;;
31087;SDS011;17745;55.914;37.554;2023-05-31T20:27:37;19.65;;;7.80;;
31087;SDS011;17745;55.914;37.554;2023-05-31T20:30:06;23.95;;;9.10;;
31087;SDS011;17745;55.914;37.554;2023-05-31T20:32:35;20.17;;;8.88;;
31087;SDS011;17745;55.914;37.554;2023-05-31T20:35:46;22.08;;;8.75;;
31087;SDS011;17745;55.914;37.554;2023-05-31T20:38:24;21.30;;;8.32;;
31087;SDS011;17745;55.914;37.554;2023-05-31T20:41:00;17.75;;;7.80;;
31087;SDS011;17745;55.914;37.554;2023-05-31T20:43:40;16.48;;;8.02;;
31087;SDS011;17745;55.914;37.554;2023-05-31T20:46:12;20.40;;;7.80;;
31087;SDS011;17745;55.914;37.554;2023-05-31T20:48:43;14.38;;;7.15;;
31087;SDS011;17745;55.914;37.554;2023-05-31T20:51:19;19.83;;;8.23;;
31087;SDS011;17745;55.914;37.554;2023-05-31T20:54:01;16.45;;;7.10;;
31087;SDS011;17745;55.914;37.554;2023-05-31T20:56:41;14.98;;;7.25;;
31087;SDS011;17745;55.914;37.554;2023-05-31T20:59:23;14.38;;;6.90;;
31087;SDS011;17745;55.914;37.554;2023-05-31T21:02:10;20.15;;;7.32;;
31087;SDS011;17745;55.914;37.554;2023-05-31T21:04:44;17.27;;;6.53;;
31087;SDS011;17745;55.914;37.554;2023-05-31T21:07:12;19.55;;;7.05;;
31087;SDS011;17745;55.914;37.554;2023-05-31T21:10:04;14.73;;;6.97;;
31087;SDS011;17745;55.914;37.554;2023-05-31T21:12:32;13.23;;;6.80;;
31087;SDS011;17745;55.914;37.554;2023-05-31T21:15:04;12.57;;;6.95;;
31087;SDS011;17745;55.914;37.554;2023-05-31T21:17:34;12.40;;;7.15;;
31087;SDS011;17745;55.914;37.554;2023-05-31T21:20:03;15.43;;;6.62;;
31087;SDS011;17745;55.914;37.554;2023-05-31T21:22:32;18.90;;;7.47;;
31087;SDS011;17745;55.914;37.554;2023-05-31T21:25:00;18.40;;;7.25;;
31087;SDS011;17745;55.914;37.554;2023-05-31T21:27:33;16.65;;;6.90;;
31087;SDS011;17745;55.914;37.554;2023-05-31T21:30:02;17.37;;;8.23;;
31087;SDS011;17745;55.914;37.554;2023-05-31T21:32:31;17.00;;;7.22;;
31087;SDS011;17745;55.914;37.554;2023-05-31T21:34:59;14.05;;;7.78;;
31087;SDS011;17745;55.914;37.554;2023-05-31T21:37:31;17.58;;;6.82;;
31087;SDS011;17745;55.914;37.554;2023-05-31T21:39:59;12.05;;;6.30;;
31087;SDS011;17745;55.914;37.554;2023-05-31T21:42:30;14.20;;;7.10;;
31087;SDS011;17745;55.914;37.554;2023-05-31T21:45:03;15.85;;;7.30;;
31087;SDS011;17745;55.914;37.554;2023-05-31T21:47:33;14.52;;;7.15;;
31087;SDS011;17745;55.914;37.554;2023-05-31T21:50:01;19.87;;;7.70;;
31087;SDS011;17745;55.914;37.554;2023-05-31T21:52:30;19.55;;;7.87;;
31087;SDS011;17745;55.914;37.554;2023-05-31T21:54:58;23.08;;;7.37;;
31087;SDS011;17745;55.914;37.554;2023-05-31T21:57:29;23.80;;;7.80;;
31087;SDS011;17745;55.914;37.554;2023-05-31T21:59:59;17.40;;;8.02;;
31087;SDS011;17745;55.914;37.554;2023-05-31T22:02:32;18.95;;;8.15;;
31087;SDS011;17745;55.914;37.554;2023-05-31T22:05:03;20.23;;;7.30;;
31087;SDS011;17745;55.914;37.554;2023-05-31T22:07:31;23.95;;;7.72;;
31087;SDS011;17745;55.914;37.554;2023-05-31T22:10:02;21.62;;;7.43;;
31087;SDS011;17745;55.914;37.554;2023-05-31T22:12:30;18.75;;;7.32;;
31087;SDS011;17745;55.914;37.554;2023-05-31T22:14:59;19.55;;;7.43;;
31087;SDS011;17745;55.914;37.554;2023-05-31T22:17:29;16.08;;;7.35;;
31087;SDS011;17745;55.914;37.554;2023-05-31T22:19:58;18.30;;;7.25;;
31087;SDS011;17745;55.914;37.554;2023-05-31T22:22:33;22.48;;;7.00;;
31087;SDS011;17745;55.914;37.554;2023-05-31T22:25:02;15.18;;;6.55;;
31087;SDS011;17745;55.914;37.554;2023-05-31T22:27:30;20.85;;;8.18;;
31087;SDS011;17745;55.914;37.554;2023-05-31T22:29:58;21.65;;;7.20;;
31087;SDS011;17745;55.914;37.554;2023-05-31T22:32:25;24.95;;;9.15;;
31087;SDS011;17745;55.914;37.554;2023-05-31T22:34:53;33.42;;;8.85;;
31087;SDS011;17745;55.914;37.554;2023-05-31T22:37:25;29.42;;;9.73;;
31087;SDS011;17745;55.914;37.554;2023-05-31T22:39:53;38.85;;;8.68;;
31087;SDS011;17745;55.914;37.554;2023-05-31T22:42:23;26.70;;;8.18;;
31087;SDS011;17745;55.914;37.554;2023-05-31T22:45:08;32.90;;;8.23;;
31087;SDS011;17745;55.914;37.554;2023-05-31T22:47:41;24.92;;;7.35;;
31087;SDS011;17745;55.914;37.554;2023-05-31T22:50:13;20.95;;;7.20;;
31087;SDS011;17745;55.914;37.554;2023-05-31T22:52:51;27.02;;;8.13;;
31087;SDS011;17745;55.914;37.554;2023-05-31T22:55:23;20.02;;;7.50;;
31087;SDS011;17745;55.914;37.554;2023-05-31T22:57:56;16.50;;;7.45;;
31087;SDS011;17745;55.914;37.554;2023-05-31T23:00:28;20.42;;;7.68;;
31087;SDS011;17745;55.914;37.554;2023-05-31T23:02:57;19.35;;;7.12;;
31087;SDS011;17745;55.914;37.554;2023-05-31T23:05:29;17.95;;;7.43;;
31087;SDS011;17745;55.914;37.554;2023-05-31T23:08:07;20.30;;;7.15;;
31087;SDS011;17745;55.914;37.554;2023-05-31T23:10:35;16.73;;;7.45;;
31087;SDS011;17745;55.914;37.554;2023-05-31T23:13:08;29.63;;;7.37;;
31087;SDS011;17745;55.914;37.554;2023-05-31T23:15:36;21.75;;;7.57;;
31087;SDS011;17745;55.914;37.554;2023-05-31T23:18:05;21.23;;;7.03;;
31087;SDS011;17745;55.914;37.554;2023-05-31T23:20:35;11.98;;;5.82;;
31087;SDS011;17745;55.914;37.554;2023-05-31T23:23:04;13.88;;;6.75;;
31087;SDS011;17745;55.914;37.554;2023-05-31T23:25:33;15.68;;;6.25;;
31087;SDS011;17745;55.914;37.554;2023-05-31T23:28:05;15.13;;;6.30;;
31087;SDS011;17745;55.914;37.554;2023-05-31T23:30:34;13.25;;;6.37;;
31087;SDS011;17745;55.914;37.554;2023-05-31T23:33:13;16.15;;;5.75;;
31087;SDS011;17745;55.914;37.554;2023-05-31T23:35:44;17.62;;;6.55;;
31087;SDS011;17745;55.914;37.554;2023-05-31T23:38:18;11.30;;;6.65;;
31087;SDS011;17745;55.914;37.554;2023-05-31T23:41:01;15.65;;;5.90;;
31087;SDS011;17745;55.914;37.554;2023-05-31T23:43:29;16.90;;;6.32;;
31087;SDS011;17745;55.914;37.554;2023-05-31T23:45:57;11.93;;;6.18;;
31087;SDS011;17745;55.914;37.554;2023-05-31T23:48:24;11.38;;;5.95;;